Athens, Michigan
Current Conditions -  °F | °C
As of 8:54 PM on Monday 24 Nov 2014 (Local Time) from KOEB Reporting Station
Overcast Overcast  
Wind Chill: 21°   Ceiling: 1300
Heat Index: 33°   Visibility: 10mi
Dew Point: 30°   Wind: 20mph
Humidity: 88%   Direction: 240°WSW
Pressure: 29.66"   Gusts: 26mph
Location:  42.09°N, 85.23°W
Report Text: KOEB 250154Z AUTO 24017G23KT 10SM OVC013 01/M01 A2966 RMK AO2 T00051012
Loading
Personal Weather Stations






























Interactive Weather Map New forecast layout! Learn more

10-Day Weather Forecast

Advertisements
Track Severe Weather on mobile